sensor_id;sensor_type;location;lat;lon;timestamp;pressure;altitude;pressure_sealevel;temperature;humidity
21203;BME280;10759;51.982;9.232;2023-05-21T00:01:44;100603.16;;;14.71;98.21
21203;BME280;10759;51.982;9.232;2023-05-21T00:04:14;100592.31;;;14.55;98.87
21203;BME280;10759;51.982;9.232;2023-05-21T00:06:43;100602.88;;;14.77;97.58
21203;BME280;10759;51.982;9.232;2023-05-21T00:09:12;100598.28;;;14.79;97.75
21203;BME280;10759;51.982;9.232;2023-05-21T00:11:40;100602.31;;;14.88;97.19
21203;BME280;10759;51.982;9.232;2023-05-21T00:14:08;100600.75;;;14.84;97.04
21203;BME280;10759;51.982;9.232;2023-05-21T00:16:35;100585.22;;;14.53;97.92
21203;BME280;10759;51.982;9.232;2023-05-21T00:19:03;100579.75;;;14.54;98.21
21203;BME280;10759;51.982;9.232;2023-05-21T00:21:31;100587.41;;;14.45;99.08
21203;BME280;10759;51.982;9.232;2023-05-21T00:23:59;100582.75;;;14.48;99.39
21203;BME280;10759;51.982;9.232;2023-05-21T00:26:28;100583.16;;;14.41;99.91
21203;BME280;10759;51.982;9.232;2023-05-21T00:28:57;100580.34;;;14.42;100.00
21203;BME280;10759;51.982;9.232;2023-05-21T00:31:25;100578.59;;;14.60;98.80
21203;BME280;10759;51.982;9.232;2023-05-21T00:33:53;100566.34;;;14.35;99.40
21203;BME280;10759;51.982;9.232;2023-05-21T00:36:20;100575.69;;;14.28;100.00
21203;BME280;10759;51.982;9.232;2023-05-21T00:38:49;100573.13;;;14.08;100.00
21203;BME280;10759;51.982;9.232;2023-05-21T00:41:18;100574.09;;;14.05;100.00
21203;BME280;10759;51.982;9.232;2023-05-21T00:43:49;100565.25;;;14.03;100.00
21203;BME280;10759;51.982;9.232;2023-05-21T00:46:18;100565.97;;;14.07;100.00
21203;BME280;10759;51.982;9.232;2023-05-21T00:48:48;100560.84;;;13.83;100.00
21203;BME280;10759;51.982;9.232;2023-05-21T00:51:17;100564.31;;;13.85;100.00
21203;BME280;10759;51.982;9.232;2023-05-21T00:53:49;100564.91;;;13.73;100.00
21203;BME280;10759;51.982;9.232;2023-05-21T00:56:18;100569.69;;;13.85;100.00
21203;BME280;10759;51.982;9.232;2023-05-21T00:58:49;100540.22;;;13.82;100.00
21203;BME280;10759;51.982;9.232;2023-05-21T01:01:17;100556.22;;;14.04;100.00
21203;BME280;10759;51.982;9.232;2023-05-21T01:03:46;100557.34;;;14.17;100.00
21203;BME280;10759;51.982;9.232;2023-05-21T01:06:14;100562.03;;;13.95;100.00
21203;BME280;10759;51.982;9.232;2023-05-21T01:08:42;100558.53;;;13.93;100.00
21203;BME280;10759;51.982;9.232;2023-05-21T01:11:11;100554.34;;;13.87;100.00
21203;BME280;10759;51.982;9.232;2023-05-21T01:13:41;100552.38;;;13.91;100.00
21203;BME280;10759;51.982;9.232;2023-05-21T01:16:11;100547.41;;;14.01;100.00
21203;BME280;10759;51.982;9.232;2023-05-21T01:18:39;100549.41;;;13.78;100.00
21203;BME280;10759;51.982;9.232;2023-05-21T01:21:11;100546.03;;;13.92;100.00
21203;BME280;10759;51.982;9.232;2023-05-21T01:23:44;100550.66;;;14.07;100.00
21203;BME280;10759;51.982;9.232;2023-05-21T01:26:12;100554.72;;;14.16;100.00
21203;BME280;10759;51.982;9.232;2023-05-21T01:28:41;100554.41;;;14.22;100.00
21203;BME280;10759;51.982;9.232;2023-05-21T01:31:22;100544.25;;;14.10;100.00
21203;BME280;10759;51.982;9.232;2023-05-21T01:33:55;100540.91;;;14.05;100.00
21203;BME280;10759;51.982;9.232;2023-05-21T01:36:31;100539.03;;;14.07;100.00
21203;BME280;10759;51.982;9.232;2023-05-21T01:39:06;100542.75;;;14.22;100.00
21203;BME280;10759;51.982;9.232;2023-05-21T01:41:37;100545.16;;;14.10;100.00
21203;BME280;10759;51.982;9.232;2023-05-21T01:44:08;100537.81;;;14.12;100.00
21203;BME280;10759;51.982;9.232;2023-05-21T01:46:36;100535.66;;;14.21;100.00
21203;BME280;10759;51.982;9.232;2023-05-21T01:49:05;100535.31;;;14.27;100.00
21203;BME280;10759;51.982;9.232;2023-05-21T01:51:34;100512.53;;;14.15;100.00
21203;BME280;10759;51.982;9.232;2023-05-21T01:54:04;100536.66;;;14.18;100.00
21203;BME280;10759;51.982;9.232;2023-05-21T01:56:32;100492.09;;;13.93;100.00
21203;BME280;10759;51.982;9.232;2023-05-21T01:59:02;100536.16;;;14.10;100.00
21203;BME280;10759;51.982;9.232;2023-05-21T02:01:31;100534.91;;;14.17;100.00
21203;BME280;10759;51.982;9.232;2023-05-21T02:03:58;100529.09;;;14.07;100.00
21203;BME280;10759;51.982;9.232;2023-05-21T02:06:27;100528.31;;;14.05;100.00
21203;BME280;10759;51.982;9.232;2023-05-21T02:08:57;100530.53;;;13.97;100.00
21203;BME280;10759;51.982;9.232;2023-05-21T02:11:26;100530.63;;;13.95;100.00
21203;BME280;10759;51.982;9.232;2023-05-21T02:13:55;100536.25;;;14.08;100.00
21203;BME280;10759;51.982;9.232;2023-05-21T02:16:24;100537.28;;;14.06;100.00
21203;BME280;10759;51.982;9.232;2023-05-21T02:18:52;100528.06;;;14.10;100.00
21203;BME280;10759;51.982;9.232;2023-05-21T02:21:23;100527.22;;;14.09;100.00
21203;BME280;10759;51.982;9.232;2023-05-21T02:23:50;100524.97;;;14.00;100.00
21203;BME280;10759;51.982;9.232;2023-05-21T02:26:18;100507.47;;;13.91;100.00
21203;BME280;10759;51.982;9.232;2023-05-21T02:28:49;100521.25;;;14.03;100.00
21203;BME280;10759;51.982;9.232;2023-05-21T02:31:18;100506.72;;;13.88;100.00
21203;BME280;10759;51.982;9.232;2023-05-21T02:33:46;100523.91;;;13.85;100.00
21203;BME280;10759;51.982;9.232;2023-05-21T02:36:14;100521.03;;;13.71;100.00
21203;BME280;10759;51.982;9.232;2023-05-21T02:38:44;100478.34;;;13.81;100.00
21203;BME280;10759;51.982;9.232;2023-05-21T02:41:13;100519.84;;;13.95;100.00
21203;BME280;10759;51.982;9.232;2023-05-21T02:43:41;100518.06;;;13.94;100.00
21203;BME280;10759;51.982;9.232;2023-05-21T02:46:11;100507.66;;;13.69;100.00
21203;BME280;10759;51.982;9.232;2023-05-21T02:48:39;100519.88;;;13.77;100.00
21203;BME280;10759;51.982;9.232;2023-05-21T02:51:07;100525.34;;;13.92;100.00
21203;BME280;10759;51.982;9.232;2023-05-21T02:53:34;100523.47;;;13.94;100.00
21203;BME280;10759;51.982;9.232;2023-05-21T02:56:03;100485.19;;;13.51;100.00
21203;BME280;10759;51.982;9.232;2023-05-21T02:58:31;100524.25;;;13.60;100.00
21203;BME280;10759;51.982;9.232;2023-05-21T03:00:59;100515.72;;;13.50;100.00
21203;BME280;10759;51.982;9.232;2023-05-21T03:03:28;100521.53;;;13.41;100.00
21203;BME280;10759;51.982;9.232;2023-05-21T03:05:58;100497.13;;;13.06;100.00
21203;BME280;10759;51.982;9.232;2023-05-21T03:08:26;100404.66;;;12.71;100.00
21203;BME280;10759;51.982;9.232;2023-05-21T03:10:53;100511.16;;;13.34;100.00
21203;BME280;10759;51.982;9.232;2023-05-21T03:13:22;100510.72;;;13.43;100.00
21203;BME280;10759;51.982;9.232;2023-05-21T03:15:50;100515.06;;;13.45;100.00
21203;BME280;10759;51.982;9.232;2023-05-21T03:18:21;100500.00;;;13.41;100.00
21203;BME280;10759;51.982;9.232;2023-05-21T03:20:51;100510.72;;;13.43;100.00
21203;BME280;10759;51.982;9.232;2023-05-21T03:23:19;100506.97;;;13.26;100.00
21203;BME280;10759;51.982;9.232;2023-05-21T03:25:47;100507.78;;;13.09;100.00
21203;BME280;10759;51.982;9.232;2023-05-21T03:28:15;100462.06;;;12.89;100.00
21203;BME280;10759;51.982;9.232;2023-05-21T03:30:46;100497.13;;;13.06;100.00
21203;BME280;10759;51.982;9.232;2023-05-21T03:33:35;100483.47;;;13.11;100.00
21203;BME280;10759;51.982;9.232;2023-05-21T03:36:17;100471.75;;;12.93;100.00
21203;BME280;10759;51.982;9.232;2023-05-21T03:38:45;100500.31;;;12.96;100.00
21203;BME280;10759;51.982;9.232;2023-05-21T03:41:13;100498.75;;;13.10;100.00
21203;BME280;10759;51.982;9.232;2023-05-21T03:43:45;100502.69;;;13.22;100.00
21203;BME280;10759;51.982;9.232;2023-05-21T03:46:13;100502.84;;;13.19;100.00
21203;BME280;10759;51.982;9.232;2023-05-21T03:48:56;100505.19;;;13.27;100.00
21203;BME280;10759;51.982;9.232;2023-05-21T03:51:28;100504.41;;;13.23;100.00
21203;BME280;10759;51.982;9.232;2023-05-21T03:53:58;100511.28;;;13.30;100.00
21203;BME280;10759;51.982;9.232;2023-05-21T03:56:27;100500.38;;;13.34;100.00
21203;BME280;10759;51.982;9.232;2023-05-21T03:58:55;100505.97;;;13.29;100.00
21203;BME280;10759;51.982;9.232;2023-05-21T04:01:24;100503.97;;;13.34;100.00
21203;BME280;10759;51.982;9.232;2023-05-21T04:03:54;100485.91;;;13.36;100.00
21203;BME280;10759;51.982;9.232;2023-05-21T04:06:23;100483.47;;;13.31;100.00
21203;BME280;10759;51.982;9.232;2023-05-21T04:08:53;100502.19;;;13.33;100.00
21203;BME280;10759;51.982;9.232;2023-05-21T04:11:20;100509.25;;;13.36;100.00
21203;BME280;10759;51.982;9.232;2023-05-21T04:13:48;100516.03;;;13.44;100.00
21203;BME280;10759;51.982;9.232;2023-05-21T04:16:17;100513.03;;;13.50;100.00
21203;BME280;10759;51.982;9.232;2023-05-21T04:18:45;100508.88;;;13.62;100.00
21203;BME280;10759;51.982;9.232;2023-05-21T04:21:15;100506.19;;;13.81;100.00
21203;BME280;10759;51.982;9.232;2023-05-21T04:23:43;100511.66;;;13.97;100.00
21203;BME280;10759;51.982;9.232;2023-05-21T04:26:22;100509.69;;;14.01;100.00
21203;BME280;10759;51.982;9.232;2023-05-21T04:28:51;100518.94;;;13.95;100.00
21203;BME280;10759;51.982;9.232;2023-05-21T04:31:20;100518.66;;;14.01;100.00
21203;BME280;10759;51.982;9.232;2023-05-21T04:33:49;100517.44;;;13.89;100.00
21203;BME280;10759;51.982;9.232;2023-05-21T04:36:17;100518.13;;;13.93;100.00
21203;BME280;10759;51.982;9.232;2023-05-21T04:38:45;100519.03;;;13.93;100.00
21203;BME280;10759;51.982;9.232;2023-05-21T04:41:14;100520.06;;;13.91;100.00
21203;BME280;10759;51.982;9.232;2023-05-21T04:43:45;100523.06;;;14.02;100.00
21203;BME280;10759;51.982;9.232;2023-05-21T04:46:14;100521.84;;;13.90;100.00
21203;BME280;10759;51.982;9.232;2023-05-21T04:48:42;100484.06;;;13.56;100.00
21203;BME280;10759;51.982;9.232;2023-05-21T04:51:11;100516.16;;;13.79;100.00
21203;BME280;10759;51.982;9.232;2023-05-21T04:53:40;100530.78;;;13.73;100.00
21203;BME280;10759;51.982;9.232;2023-05-21T04:56:08;100527.28;;;13.71;100.00
21203;BME280;10759;51.982;9.232;2023-05-21T04:58:36;100524.38;;;13.76;100.00
21203;BME280;10759;51.982;9.232;2023-05-21T05:01:07;100503.13;;;13.70;100.00
21203;BME280;10759;51.982;9.232;2023-05-21T05:03:35;100521.53;;;13.79;100.00
21203;BME280;10759;51.982;9.232;2023-05-21T05:06:04;100518.94;;;13.95;100.00
21203;BME280;10759;51.982;9.232;2023-05-21T05:08:33;100472.72;;;13.85;100.00
21203;BME280;10759;51.982;9.232;2023-05-21T05:11:02;100515.34;;;14.13;100.00
21203;BME280;10759;51.982;9.232;2023-05-21T05:13:31;100511.44;;;14.19;100.00
21203;BME280;10759;51.982;9.232;2023-05-21T05:15:59;100509.56;;;14.21;100.00
21203;BME280;10759;51.982;9.232;2023-05-21T05:18:28;100511.69;;;14.32;100.00
21203;BME280;10759;51.982;9.232;2023-05-21T05:20:56;100516.94;;;14.35;100.00
21203;BME280;10759;51.982;9.232;2023-05-21T05:23:25;100506.69;;;14.42;100.00
21203;BME280;10759;51.982;9.232;2023-05-21T05:25:53;100507.97;;;14.52;100.00
21203;BME280;10759;51.982;9.232;2023-05-21T05:28:21;100516.72;;;14.57;100.00
21203;BME280;10759;51.982;9.232;2023-05-21T05:30:49;100504.81;;;14.61;100.00
21203;BME280;10759;51.982;9.232;2023-05-21T05:33:23;100503.31;;;14.73;100.00
21203;BME280;10759;51.982;9.232;2023-05-21T05:35:53;100503.28;;;14.90;100.00
21203;BME280;10759;51.982;9.232;2023-05-21T05:38:21;100502.97;;;14.96;100.00
21203;BME280;10759;51.982;9.232;2023-05-21T05:40:49;100505.91;;;14.92;100.00
21203;BME280;10759;51.982;9.232;2023-05-21T05:43:17;100515.22;;;15.02;100.00
21203;BME280;10759;51.982;9.232;2023-05-21T05:45:46;100507.31;;;14.99;100.00
21203;BME280;10759;51.982;9.232;2023-05-21T05:48:14;100509.72;;;14.88;100.00
21203;BME280;10759;51.982;9.232;2023-05-21T05:50:42;100469.75;;;14.61;100.00
21203;BME280;10759;51.982;9.232;2023-05-21T05:53:12;100507.63;;;14.93;100.00
21203;BME280;10759;51.982;9.232;2023-05-21T05:55:40;100508.19;;;14.99;100.00
21203;BME280;10759;51.982;9.232;2023-05-21T05:58:08;100508.56;;;15.09;100.00
21203;BME280;10759;51.982;9.232;2023-05-21T06:00:56;100510.28;;;15.10;100.00
21203;BME280;10759;51.982;9.232;2023-05-21T06:03:26;100500.88;;;15.17;100.00
21203;BME280;10759;51.982;9.232;2023-05-21T06:05:56;100510.81;;;15.17;100.00
21203;BME280;10759;51.982;9.232;2023-05-21T06:08:27;100504.72;;;15.13;100.00
21203;BME280;10759;51.982;9.232;2023-05-21T06:10:55;100508.81;;;15.20;100.00
21203;BME280;10759;51.982;9.232;2023-05-21T06:13:23;100506.28;;;15.17;100.00
21203;BME280;10759;51.982;9.232;2023-05-21T06:15:51;100519.00;;;15.15;100.00
21203;BME280;10759;51.982;9.232;2023-05-21T06:18:19;100512.91;;;15.28;100.00
21203;BME280;10759;51.982;9.232;2023-05-21T06:20:47;100502.72;;;15.33;100.00
21203;BME280;10759;51.982;9.232;2023-05-21T06:23:17;100491.06;;;15.32;100.00
21203;BME280;10759;51.982;9.232;2023-05-21T06:25:46;100509.28;;;15.29;100.00
21203;BME280;10759;51.982;9.232;2023-05-21T06:28:15;100510.22;;;15.12;100.00
21203;BME280;10759;51.982;9.232;2023-05-21T06:30:43;100503.81;;;14.97;100.00
21203;BME280;10759;51.982;9.232;2023-05-21T06:33:11;100508.56;;;15.09;100.00
21203;BME280;10759;51.982;9.232;2023-05-21T06:35:39;100504.38;;;14.86;100.00
21203;BME280;10759;51.982;9.232;2023-05-21T06:38:09;100498.47;;;14.79;100.00
21203;BME280;10759;51.982;9.232;2023-05-21T06:40:36;100499.06;;;15.18;100.00
21203;BME280;10759;51.982;9.232;2023-05-21T06:43:07;100501.59;;;15.21;100.00
21203;BME280;10759;51.982;9.232;2023-05-21T06:45:35;100501.06;;;15.14;100.00
21203;BME280;10759;51.982;9.232;2023-05-21T06:48:16;100504.81;;;15.28;100.00
21203;BME280;10759;51.982;9.232;2023-05-21T06:50:46;100515.66;;;15.59;100.00
21203;BME280;10759;51.982;9.232;2023-05-21T06:53:15;100504.13;;;15.40;100.00
21203;BME280;10759;51.982;9.232;2023-05-21T06:55:44;100505.31;;;15.83;100.00
21203;BME280;10759;51.982;9.232;2023-05-21T06:58:18;100508.41;;;16.07;100.00
21203;BME280;10759;51.982;9.232;2023-05-21T07:00:46;100506.31;;;15.97;100.00
21203;BME280;10759;51.982;9.232;2023-05-21T07:03:15;100459.03;;;15.74;99.91
21203;BME280;10759;51.982;9.232;2023-05-21T07:05:45;100492.53;;;16.01;100.00
21203;BME280;10759;51.982;9.232;2023-05-21T07:08:14;100489.75;;;16.33;100.00
21203;BME280;10759;51.982;9.232;2023-05-21T07:10:42;100487.34;;;16.28;98.19
21203;BME280;10759;51.982;9.232;2023-05-21T07:13:10;100499.00;;;16.15;99.00
21203;BME280;10759;51.982;9.232;2023-05-21T07:15:39;100507.50;;;16.23;98.52
21203;BME280;10759;51.982;9.232;2023-05-21T07:18:07;100485.03;;;16.06;99.95
21203;BME280;10759;51.982;9.232;2023-05-21T07:20:35;100503.88;;;16.38;97.77
21203;BME280;10759;51.982;9.232;2023-05-21T07:23:05;100468.72;;;16.38;96.30
21203;BME280;10759;51.982;9.232;2023-05-21T07:25:33;100500.06;;;16.57;96.10
21203;BME280;10759;51.982;9.232;2023-05-21T07:28:01;100488.88;;;16.63;94.93
21203;BME280;10759;51.982;9.232;2023-05-21T07:30:32;100479.13;;;16.74;94.53
21203;BME280;10759;51.982;9.232;2023-05-21T07:33:03;100505.97;;;16.78;93.16
21203;BME280;10759;51.982;9.232;2023-05-21T07:35:32;100508.69;;;16.78;96.41
21203;BME280;10759;51.982;9.232;2023-05-21T07:38:00;100501.78;;;17.16;93.52
21203;BME280;10759;51.982;9.232;2023-05-21T07:40:28;100480.63;;;17.09;91.57
21203;BME280;10759;51.982;9.232;2023-05-21T07:42:56;100498.38;;;17.13;95.16
21203;BME280;10759;51.982;9.232;2023-05-21T07:45:27;100500.81;;;17.17;92.88
21203;BME280;10759;51.982;9.232;2023-05-21T07:47:55;100492.81;;;17.16;94.45
21203;BME280;10759;51.982;9.232;2023-05-21T07:50:26;100495.38;;;17.46;92.18
21203;BME280;10759;51.982;9.232;2023-05-21T07:52:54;100496.22;;;17.61;89.61
21203;BME280;10759;51.982;9.232;2023-05-21T07:55:23;100497.00;;;17.49;90.46
21203;BME280;10759;51.982;9.232;2023-05-21T07:57:51;100495.09;;;17.22;91.29
21203;BME280;10759;51.982;9.232;2023-05-21T08:00:27;100387.22;;;16.44;93.10
21203;BME280;10759;51.982;9.232;2023-05-21T08:02:56;100483.41;;;17.36;92.91
21203;BME280;10759;51.982;9.232;2023-05-21T08:05:26;100480.81;;;17.62;90.65
21203;BME280;10759;51.982;9.232;2023-05-21T08:07:54;100428.53;;;17.32;89.11
21203;BME280;10759;51.982;9.232;2023-05-21T08:10:23;100483.81;;;17.98;89.46
21203;BME280;10759;51.982;9.232;2023-05-21T08:12:51;100486.66;;;17.97;90.33
21203;BME280;10759;51.982;9.232;2023-05-21T08:15:19;100487.34;;;18.13;88.50
21203;BME280;10759;51.982;9.232;2023-05-21T08:17:48;100490.75;;;17.90;88.35
21203;BME280;10759;51.982;9.232;2023-05-21T08:20:17;100488.50;;;17.55;90.74
21203;BME280;10759;51.982;9.232;2023-05-21T08:22:48;100486.28;;;17.89;91.29
21203;BME280;10759;51.982;9.232;2023-05-21T08:25:16;100491.59;;;18.17;90.80
21203;BME280;10759;51.982;9.232;2023-05-21T08:27:44;100459.44;;;18.51;90.42
21203;BME280;10759;51.982;9.232;2023-05-21T08:30:12;100488.44;;;18.63;88.14
21203;BME280;10759;51.982;9.232;2023-05-21T08:32:40;100493.44;;;18.82;86.74
21203;BME280;10759;51.982;9.232;2023-05-21T08:35:10;100493.03;;;18.88;87.17
21203;BME280;10759;51.982;9.232;2023-05-21T08:38:04;100490.19;;;19.16;85.02
21203;BME280;10759;51.982;9.232;2023-05-21T08:40:58;100492.59;;;18.82;86.02
21203;BME280;10759;51.982;9.232;2023-05-21T08:43:28;100459.63;;;18.48;87.57
21203;BME280;10759;51.982;9.232;2023-05-21T08:45:59;100489.00;;;18.94;86.18
21203;BME280;10759;51.982;9.232;2023-05-21T08:48:31;100472.06;;;19.03;84.54
21203;BME280;10759;51.982;9.232;2023-05-21T08:50:59;100468.03;;;19.09;85.62
21203;BME280;10759;51.982;9.232;2023-05-21T08:53:33;100481.84;;;19.56;84.04
21203;BME280;10759;51.982;9.232;2023-05-21T08:56:04;100428.97;;;19.36;81.23
21203;BME280;10759;51.982;9.232;2023-05-21T08:58:47;100483.44;;;19.71;82.30
21203;BME280;10759;51.982;9.232;2023-05-21T09:01:18;100476.13;;;19.84;83.22
21203;BME280;10759;51.982;9.232;2023-05-21T09:04:01;100461.78;;;19.82;80.30
21203;BME280;10759;51.982;9.232;2023-05-21T09:06:46;100478.75;;;19.73;79.92
21203;BME280;10759;51.982;9.232;2023-05-21T09:09:27;100481.16;;;19.65;81.85
21203;BME280;10759;51.982;9.232;2023-05-21T09:11:59;100470.59;;;19.73;82.06
21203;BME280;10759;51.982;9.232;2023-05-21T09:14:28;100478.91;;;19.71;83.78
21203;BME280;10759;51.982;9.232;2023-05-21T09:17:02;100477.50;;;19.53;81.15
21203;BME280;10759;51.982;9.232;2023-05-21T09:19:30;100492.78;;;19.67;81.38
21203;BME280;10759;51.982;9.232;2023-05-21T09:22:01;100490.25;;;19.89;80.77
21203;BME280;10759;51.982;9.232;2023-05-21T09:24:32;100474.38;;;20.07;80.94
21203;BME280;10759;51.982;9.232;2023-05-21T09:27:05;100485.94;;;20.57;78.06
21203;BME280;10759;51.982;9.232;2023-05-21T09:29:35;100483.53;;;20.42;79.36
21203;BME280;10759;51.982;9.232;2023-05-21T09:32:08;100431.41;;;20.35;77.61
21203;BME280;10759;51.982;9.232;2023-05-21T09:34:38;100484.63;;;19.67;80.16
21203;BME280;10759;51.982;9.232;2023-05-21T09:37:06;100485.16;;;19.35;81.65
21203;BME280;10759;51.982;9.232;2023-05-21T09:39:54;100487.75;;;19.49;83.05
21203;BME280;10759;51.982;9.232;2023-05-21T09:42:22;100487.69;;;19.75;81.49
21203;BME280;10759;51.982;9.232;2023-05-21T09:44:50;100482.97;;;20.25;81.86
21203;BME280;10759;51.982;9.232;2023-05-21T09:47:19;100484.91;;;19.88;80.93
21203;BME280;10759;51.982;9.232;2023-05-21T09:49:48;100286.41;;;18.80;80.78
21203;BME280;10759;51.982;9.232;2023-05-21T09:52:22;100482.78;;;20.40;79.42
21203;BME280;10759;51.982;9.232;2023-05-21T09:54:51;100461.47;;;20.69;79.75
21203;BME280;10759;51.982;9.232;2023-05-21T09:57:24;100484.66;;;21.08;78.00
21203;BME280;10759;51.982;9.232;2023-05-21T09:59:53;100479.56;;;21.26;75.91
21203;BME280;10759;51.982;9.232;2023-05-21T10:02:22;100477.38;;;20.97;78.56
21203;BME280;10759;51.982;9.232;2023-05-21T10:04:52;100456.06;;;21.14;76.71
21203;BME280;10759;51.982;9.232;2023-05-21T10:07:21;100458.78;;;21.48;75.91
21203;BME280;10759;51.982;9.232;2023-05-21T10:09:52;100468.53;;;21.73;73.77
21203;BME280;10759;51.982;9.232;2023-05-21T10:12:22;100468.66;;;21.71;72.25
21203;BME280;10759;51.982;9.232;2023-05-21T10:14:58;100466.84;;;21.27;74.26
21203;BME280;10759;51.982;9.232;2023-05-21T10:17:27;100461.75;;;20.88;77.13
21203;BME280;10759;51.982;9.232;2023-05-21T10:19:56;100461.00;;;21.31;75.71
21203;BME280;10759;51.982;9.232;2023-05-21T10:22:26;100462.13;;;20.72;77.04
21203;BME280;10759;51.982;9.232;2023-05-21T10:24:55;100457.53;;;20.73;80.18
21203;BME280;10759;51.982;9.232;2023-05-21T10:27:25;100419.53;;;20.60;80.38
21203;BME280;10759;51.982;9.232;2023-05-21T10:29:58;100458.91;;;20.90;77.27
21203;BME280;10759;51.982;9.232;2023-05-21T10:32:26;100454.16;;;20.69;77.83
21203;BME280;10759;51.982;9.232;2023-05-21T10:34:55;100461.41;;;21.27;78.78
21203;BME280;10759;51.982;9.232;2023-05-21T10:37:27;100445.53;;;20.98;77.82
21203;BME280;10759;51.982;9.232;2023-05-21T10:39:55;100445.53;;;20.98;77.42
21203;BME280;10759;51.982;9.232;2023-05-21T10:45:31;100418.41;;;20.74;78.11
21203;BME280;10759;51.982;9.232;2023-05-21T10:48:18;100445.16;;;20.80;79.16
21203;BME280;10759;51.982;9.232;2023-05-21T10:51:12;100418.53;;;20.84;78.18
21203;BME280;10759;51.982;9.232;2023-05-21T10:53:57;100432.78;;;20.76;79.42
21203;BME280;10759;51.982;9.232;2023-05-21T10:56:29;100440.44;;;20.82;78.96
21203;BME280;10759;51.982;9.232;2023-05-21T10:59:13;100433.28;;;21.15;78.27
21203;BME280;10759;51.982;9.232;2023-05-21T11:01:49;100427.94;;;21.13;78.24
21203;BME280;10759;51.982;9.232;2023-05-21T11:04:21;100423.63;;;21.88;76.56
21203;BME280;10759;51.982;9.232;2023-05-21T11:06:50;100422.97;;;21.52;75.02
21203;BME280;10759;51.982;9.232;2023-05-21T11:09:17;100428.50;;;22.05;76.21
21203;BME280;10759;51.982;9.232;2023-05-21T11:11:49;100427.13;;;22.32;73.71
21203;BME280;10759;51.982;9.232;2023-05-21T11:14:31;100425.84;;;21.83;74.44
21203;BME280;10759;51.982;9.232;2023-05-21T11:17:08;100417.69;;;21.39;76.10
21203;BME280;10759;51.982;9.232;2023-05-21T11:19:38;100424.56;;;21.66;77.37
21203;BME280;10759;51.982;9.232;2023-05-21T11:22:20;100429.59;;;21.71;75.61
21203;BME280;10759;51.982;9.232;2023-05-21T11:24:48;100389.34;;;21.95;74.55
21203;BME280;10759;51.982;9.232;2023-05-21T11:27:31;100416.22;;;22.53;75.48
21203;BME280;10759;51.982;9.232;2023-05-21T11:30:03;100419.41;;;21.84;75.12
21203;BME280;10759;51.982;9.232;2023-05-21T11:32:35;100405.81;;;21.73;76.92
21203;BME280;10759;51.982;9.232;2023-05-21T11:35:05;100353.91;;;21.63;76.18
21203;BME280;10759;51.982;9.232;2023-05-21T11:37:34;100371.81;;;21.77;77.13
21203;BME280;10759;51.982;9.232;2023-05-21T11:40:17;100416.84;;;22.03;76.07
21203;BME280;10759;51.982;9.232;2023-05-21T11:42:48;100414.78;;;22.28;76.44
21203;BME280;10759;51.982;9.232;2023-05-21T11:45:18;100411.91;;;22.50;75.31
21203;BME280;10759;51.982;9.232;2023-05-21T11:47:48;100414.75;;;22.70;75.96
21203;BME280;10759;51.982;9.232;2023-05-21T11:50:17;100410.09;;;22.61;74.09
21203;BME280;10759;51.982;9.232;2023-05-21T11:52:47;100413.16;;;22.46;74.79
21203;BME280;10759;51.982;9.232;2023-05-21T11:55:20;100416.50;;;22.29;74.09
21203;BME280;10759;51.982;9.232;2023-05-21T11:57:51;100399.97;;;22.51;74.13
21203;BME280;10759;51.982;9.232;2023-05-21T12:00:20;100412.56;;;22.43;75.44
21203;BME280;10759;51.982;9.232;2023-05-21T12:02:51;100394.44;;;22.63;74.03
21203;BME280;10759;51.982;9.232;2023-05-21T12:05:22;100407.47;;;22.80;73.17
21203;BME280;10759;51.982;9.232;2023-05-21T12:07:52;100403.47;;;22.84;72.77
21203;BME280;10759;51.982;9.232;2023-05-21T12:10:22;100400.69;;;22.75;73.74
21203;BME280;10759;51.982;9.232;2023-05-21T12:12:50;100386.09;;;22.95;72.67
21203;BME280;10759;51.982;9.232;2023-05-21T12:15:24;100365.22;;;22.84;76.57
21203;BME280;10759;51.982;9.232;2023-05-21T12:17:54;100385.47;;;22.82;73.96
21203;BME280;10759;51.982;9.232;2023-05-21T12:20:25;100386.78;;;23.18;72.86
21203;BME280;10759;51.982;9.232;2023-05-21T12:22:56;100376.59;;;22.89;74.47
21203;BME280;10759;51.982;9.232;2023-05-21T12:25:24;100372.56;;;23.24;74.90
21203;BME280;10759;51.982;9.232;2023-05-21T12:27:52;100377.78;;;23.47;72.20
21203;BME280;10759;51.982;9.232;2023-05-21T12:30:26;100369.19;;;23.11;73.40
21203;BME280;10759;51.982;9.232;2023-05-21T12:32:57;100382.94;;;23.30;72.02
21203;BME280;10759;51.982;9.232;2023-05-21T12:35:29;100377.63;;;23.29;72.64
21203;BME280;10759;51.982;9.232;2023-05-21T12:37:59;100302.78;;;22.70;73.17
21203;BME280;10759;51.982;9.232;2023-05-21T12:40:34;100379.44;;;23.09;73.47
21203;BME280;10759;51.982;9.232;2023-05-21T12:43:04;100373.53;;;23.13;73.27
21203;BME280;10759;51.982;9.232;2023-05-21T12:45:32;100378.03;;;22.93;74.11
21203;BME280;10759;51.982;9.232;2023-05-21T12:48:01;100370.41;;;22.87;74.90
21203;BME280;10759;51.982;9.232;2023-05-21T12:50:31;100375.25;;;22.84;74.77
21203;BME280;10759;51.982;9.232;2023-05-21T12:53:01;100376.41;;;23.12;74.55
21203;BME280;10759;51.982;9.232;2023-05-21T12:55:30;100372.28;;;23.27;73.73
21203;BME280;10759;51.982;9.232;2023-05-21T12:58:02;100317.47;;;23.19;73.58
21203;BME280;10759;51.982;9.232;2023-05-21T13:00:33;100372.16;;;23.39;73.00
21203;BME280;10759;51.982;9.232;2023-05-21T13:03:03;100368.84;;;23.35;73.35
21203;BME280;10759;51.982;9.232;2023-05-21T13:05:32;100325.44;;;23.01;74.75